Time;durP1;ratioP1;P1;durP2;ratioP2;P2;SDS_P1;SDS_P2;PMS_P1;PMS_P2;Temp;Humidity;BMP_temperature;BMP_pressure;BME280_temperature;BME280_humidity;BME280_pressure;Samples;Min_cycle;Max_cycle;Signal;HPM_P1;HPM_P2
2024/04/08 00:00:16;;;;;;;6.43;1.50;;;;;;;;;;5022381;28;20599;-84
2024/04/08 00:02:42;;;;;;;4.30;1.63;;;;;;;;;;5018339;28;20244;-83
2024/04/08 00:05:08;;;;;;;4.83;1.50;;;;;;;;;;5018109;28;20677;-82
2024/04/08 00:07:34;;;;;;;2.27;1.37;;;;;;;;;;5018693;28;20187;-82
2024/04/08 00:10:00;;;;;;;1.80;1.40;;;;;;;;;;5018747;28;20202;-82
2024/04/08 00:12:26;;;;;;;4.17;1.80;;;;;;;;;;5018590;28;20540;-82
2024/04/08 00:14:53;;;;;;;5.13;1.50;;;;;;;;;;5018289;28;20658;-83
2024/04/08 00:17:19;;;;;;;7.77;2.10;;;;;;;;;;5018727;28;20183;-84
2024/04/08 00:19:45;;;;;;;4.90;1.67;;;;;;;;;;5000463;28;20194;-84
2024/04/08 00:22:12;;;;;;;4.60;1.63;;;;;;;;;;5001226;28;20182;-82
2024/04/08 00:24:38;;;;;;;5.47;1.60;;;;;;;;;;5001968;28;20293;-82
2024/04/08 00:27:04;;;;;;;5.37;2.17;;;;;;;;;;5018687;28;20590;-82
2024/04/08 00:29:30;;;;;;;4.27;1.87;;;;;;;;;;5001484;28;20210;-83
2024/04/08 00:31:56;;;;;;;4.80;1.77;;;;;;;;;;5019192;28;20198;-82
2024/04/08 00:34:22;;;;;;;3.77;1.90;;;;;;;;;;5020225;28;20279;-84
2024/04/08 00:36:48;;;;;;;3.40;1.70;;;;;;;;;;5019942;28;20648;-82
2024/04/08 00:39:15;;;;;;;2.83;1.60;;;;;;;;;;5019508;28;20209;-82
2024/04/08 00:41:41;;;;;;;2.17;1.60;;;;;;;;;;5019474;28;20232;-83
2024/04/08 00:44:07;;;;;;;4.53;2.20;;;;;;;;;;5019009;28;20205;-85
2024/04/08 00:46:33;;;;;;;3.30;1.90;;;;;;;;;;5003011;28;20186;-84
2024/04/08 00:48:59;;;;;;;5.70;1.90;;;;;;;;;;5021290;28;20588;-83
2024/04/08 00:51:25;;;;;;;3.50;1.83;;;;;;;;;;5021208;28;20221;-82
2024/04/08 00:53:51;;;;;;;4.27;1.53;;;;;;;;;;5021666;28;20691;-83
2024/04/08 00:56:18;;;;;;;4.17;1.50;;;;;;;;;;5021386;28;20240;-82
2024/04/08 00:58:45;;;;;;;1.87;1.30;;;;;;;;;;5020639;28;20201;-83
2024/04/08 01:01:15;;;;;;;3.73;1.97;;;;;;;;;;5021612;28;20655;-85
2024/04/08 01:03:42;;;;;;;2.90;1.40;;;;;;;;;;5022118;28;20220;-85
2024/04/08 01:06:09;;;;;;;5.83;1.77;;;;;;;;;;5022735;28;20210;-85
2024/04/08 01:08:35;;;;;;;3.87;1.93;;;;;;;;;;5021028;28;20655;-83
2024/04/08 01:11:01;;;;;;;3.33;1.73;;;;;;;;;;5021084;28;20265;-83
2024/04/08 01:13:27;;;;;;;3.30;1.70;;;;;;;;;;5020694;28;20212;-82
2024/04/08 01:15:53;;;;;;;3.93;1.70;;;;;;;;;;5020870;28;20189;-82
2024/04/08 01:18:19;;;;;;;4.27;2.07;;;;;;;;;;5020856;28;20212;-82
2024/04/08 01:20:45;;;;;;;3.13;1.80;;;;;;;;;;5020664;28;20209;-83
2024/04/08 01:23:13;;;;;;;3.50;1.47;;;;;;;;;;5002853;28;20675;-82
2024/04/08 01:25:39;;;;;;;3.47;1.60;;;;;;;;;;5020772;28;20209;-83
2024/04/08 01:28:05;;;;;;;4.10;1.93;;;;;;;;;;5017262;28;20178;-82
2024/04/08 01:30:31;;;;;;;1.90;1.37;;;;;;;;;;5015799;28;20265;-83
2024/04/08 01:32:58;;;;;;;4.90;1.80;;;;;;;;;;5016555;28;20197;-82
2024/04/08 01:35:23;;;;;;;3.27;1.43;;;;;;;;;;5016221;28;20208;-82
2024/04/08 01:37:49;;;;;;;3.13;1.57;;;;;;;;;;5016427;28;20583;-82
2024/04/08 01:40:16;;;;;;;5.77;2.10;;;;;;;;;;5016883;28;20185;-82
2024/04/08 01:42:42;;;;;;;2.67;1.60;;;;;;;;;;5016834;28;20215;-82
2024/04/08 01:45:08;;;;;;;2.20;1.60;;;;;;;;;;5017103;28;20220;-83
2024/04/08 01:47:34;;;;;;;3.93;1.53;;;;;;;;;;5017324;28;20663;-82
2024/04/08 01:50:00;;;;;;;3.47;1.80;;;;;;;;;;5017233;28;20183;-82
2024/04/08 01:52:26;;;;;;;6.67;1.77;;;;;;;;;;5017010;28;20192;-82
2024/04/08 01:54:52;;;;;;;4.07;1.53;;;;;;;;;;5017022;28;20220;-82
2024/04/08 01:57:18;;;;;;;2.40;1.70;;;;;;;;;;5017250;28;20214;-83
2024/04/08 01:59:44;;;;;;;6.17;1.80;;;;;;;;;;5016755;28;20258;-82
2024/04/08 02:02:10;;;;;;;2.90;1.57;;;;;;;;;;4998919;28;20226;-80
2024/04/08 02:04:36;;;;;;;3.83;1.63;;;;;;;;;;5016844;28;20575;-82
2024/04/08 02:07:02;;;;;;;8.00;2.30;;;;;;;;;;5017027;28;20230;-82
2024/04/08 02:09:28;;;;;;;3.87;1.90;;;;;;;;;;5017054;28;20589;-83
2024/04/08 02:11:54;;;;;;;4.30;1.87;;;;;;;;;;5016348;28;20184;-83
2024/04/08 02:14:20;;;;;;;2.63;1.60;;;;;;;;;;5017078;28;20218;-82
2024/04/08 02:16:46;;;;;;;2.53;1.80;;;;;;;;;;4999517;28;20281;-82
2024/04/08 02:19:12;;;;;;;2.63;1.80;;;;;;;;;;5017136;28;20184;-83
2024/04/08 02:21:38;;;;;;;4.30;1.67;;;;;;;;;;5017490;28;20197;-82
2024/04/08 02:24:04;;;;;;;4.80;1.67;;;;;;;;;;5016725;28;20306;-84
2024/04/08 02:26:30;;;;;;;3.43;1.60;;;;;;;;;;5017118;28;20211;-82
2024/04/08 02:28:59;;;;;;;3.20;1.67;;;;;;;;;;5016994;28;20555;-81
2024/04/08 02:31:25;;;;;;;2.43;1.53;;;;;;;;;;5015909;28;20183;-82
2024/04/08 02:33:52;;;;;;;5.33;2.13;;;;;;;;;;5015769;28;20218;-84
2024/04/08 02:36:18;;;;;;;3.43;1.73;;;;;;;;;;5015847;28;20184;-82
2024/04/08 02:38:44;;;;;;;2.37;1.80;;;;;;;;;;5015949;28;20189;-84
2024/04/08 02:41:10;;;;;;;3.40;1.87;;;;;;;;;;5016137;28;20197;-84
2024/04/08 02:43:36;;;;;;;4.47;2.00;;;;;;;;;;5015596;28;20234;-84
2024/04/08 02:46:02;;;;;;;4.43;1.90;;;;;;;;;;5015304;28;21188;-83
2024/04/08 02:48:28;;;;;;;3.23;2.00;;;;;;;;;;5015897;28;20181;-84
2024/04/08 02:50:55;;;;;;;3.20;1.90;;;;;;;;;;5016587;28;20224;-84
2024/04/08 02:53:21;;;;;;;2.33;1.67;;;;;;;;;;5007942;28;20281;-84
2024/04/08 02:55:47;;;;;;;7.10;2.30;;;;;;;;;;5032239;28;20188;-83
2024/04/08 02:58:13;;;;;;;2.63;1.77;;;;;;;;;;5021883;28;20304;-83
2024/04/08 03:00:39;;;;;;;4.27;1.80;;;;;;;;;;5019170;28;20552;-83
2024/04/08 03:03:06;;;;;;;2.00;1.53;;;;;;;;;;5031283;28;20206;-84
2024/04/08 03:05:33;;;;;;;3.63;2.23;;;;;;;;;;5034274;28;20655;-84
2024/04/08 03:07:59;;;;;;;3.43;1.80;;;;;;;;;;5034917;28;20181;-84
2024/04/08 03:10:25;;;;;;;2.47;1.73;;;;;;;;;;5035739;28;20211;-84
2024/04/08 03:12:53;;;;;;;2.83;1.80;;;;;;;;;;5035174;28;20232;-83
2024/04/08 03:15:19;;;;;;;3.07;1.90;;;;;;;;;;5035760;28;20219;-84
2024/04/08 03:17:45;;;;;;;4.33;1.90;;;;;;;;;;5035882;28;20178;-84
2024/04/08 03:20:11;;;;;;;2.00;1.80;;;;;;;;;;5036496;28;20659;-84
2024/04/08 03:22:37;;;;;;;3.73;2.10;;;;;;;;;;5035144;28;20216;-84
2024/04/08 03:25:03;;;;;;;3.83;1.60;;;;;;;;;;5035199;28;20211;-85
2024/04/08 03:27:30;;;;;;;3.97;1.80;;;;;;;;;;5035540;28;20201;-85
2024/04/08 03:29:56;;;;;;;2.13;1.60;;;;;;;;;;5018200;28;20463;-85
2024/04/08 03:32:22;;;;;;;6.50;2.13;;;;;;;;;;5035529;28;20176;-84
2024/04/08 03:34:48;;;;;;;6.40;2.47;;;;;;;;;;5035158;28;20226;-85
2024/04/08 03:37:14;;;;;;;2.60;2.00;;;;;;;;;;5035413;28;20215;-85
2024/04/08 03:39:40;;;;;;;2.97;1.93;;;;;;;;;;5022804;28;20199;-85
2024/04/08 03:42:06;;;;;;;3.93;2.20;;;;;;;;;;5021114;28;20208;-85
2024/04/08 03:44:32;;;;;;;4.30;1.90;;;;;;;;;;5020501;28;20208;-85
2024/04/08 03:46:58;;;;;;;4.57;2.27;;;;;;;;;;5020461;28;20185;-85
2024/04/08 03:49:25;;;;;;;4.47;2.10;;;;;;;;;;5020379;28;20176;-84
2024/04/08 03:51:51;;;;;;;2.73;2.00;;;;;;;;;;5020457;28;20540;-85
2024/04/08 03:54:17;;;;;;;3.13;2.00;;;;;;;;;;5020197;28;20208;-84
2024/04/08 03:56:43;;;;;;;4.03;2.23;;;;;;;;;;5020162;28;20656;-85
2024/04/08 03:59:09;;;;;;;4.80;2.13;;;;;;;;;;5019573;28;20205;-84
2024/04/08 04:01:35;;;;;;;9.50;2.20;;;;;;;;;;5001885;28;20193;-83
2024/04/08 04:04:01;;;;;;;6.30;2.03;;;;;;;;;;5020157;28;20219;-84
2024/04/08 04:06:28;;;;;;;4.20;2.13;;;;;;;;;;5019257;28;20212;-84
2024/04/08 04:08:54;;;;;;;7.57;2.40;;;;;;;;;;5000373;28;20185;-83
2024/04/08 04:11:20;;;;;;;2.70;1.90;;;;;;;;;;5014714;28;20174;-82
2024/04/08 04:13:48;;;;;;;4.77;2.37;;;;;;;;;;5014954;28;20209;-82
2024/04/08 04:16:14;;;;;;;5.93;2.30;;;;;;;;;;5018124;28;20184;-83
2024/04/08 04:18:40;;;;;;;5.80;2.27;;;;;;;;;;5018155;28;20188;-82
2024/04/08 04:21:06;;;;;;;3.47;2.00;;;;;;;;;;5020967;28;20198;-83
2024/04/08 04:23:32;;;;;;;2.73;1.83;;;;;;;;;;5016032;28;20215;-85
2024/04/08 04:25:59;;;;;;;5.13;2.13;;;;;;;;;;5016950;28;20186;-84
2024/04/08 04:28:25;;;;;;;7.43;2.37;;;;;;;;;;5024664;28;20184;-84
2024/04/08 04:30:55;;;;;;;2.87;1.90;;;;;;;;;;5016867;28;20213;-83
2024/04/08 04:33:21;;;;;;;5.30;2.13;;;;;;;;;;5007204;28;20207;-84
2024/04/08 04:35:54;;;;;;;4.83;2.07;;;;;;;;;;5018535;28;20223;-84
2024/04/08 04:38:20;;;;;;;3.93;2.07;;;;;;;;;;5020136;28;20316;-84
2024/04/08 04:40:46;;;;;;;7.10;2.20;;;;;;;;;;5020319;28;20236;-84
2024/04/08 04:43:12;;;;;;;7.57;2.37;;;;;;;;;;5021295;28;20209;-84
2024/04/08 04:45:38;;;;;;;6.03;2.10;;;;;;;;;;5022318;28;20668;-85
2024/04/08 04:48:05;;;;;;;8.07;1.93;;;;;;;;;;5005309;28;20182;-84
2024/04/08 04:50:32;;;;;;;4.03;2.20;;;;;;;;;;5023084;28;20182;-85
2024/04/08 04:52:58;;;;;;;2.63;2.03;;;;;;;;;;5022704;28;20265;-84
2024/04/08 04:55:24;;;;;;;8.47;2.50;;;;;;;;;;5022476;28;20282;-84
2024/04/08 04:57:50;;;;;;;4.10;2.43;;;;;;;;;;5023194;28;20223;-84
2024/04/08 05:00:17;;;;;;;4.30;2.10;;;;;;;;;;4989197;28;20265;-84
2024/04/08 05:02:43;;;;;;;3.30;1.93;;;;;;;;;;5025862;28;20567;-84
2024/04/08 05:05:09;;;;;;;3.20;2.00;;;;;;;;;;5026794;28;20198;-85
2024/04/08 05:07:36;;;;;;;4.83;2.47;;;;;;;;;;5027774;28;20269;-85
2024/04/08 05:10:02;;;;;;;4.90;2.20;;;;;;;;;;5026298;28;20229;-85
2024/04/08 05:12:28;;;;;;;3.80;2.27;;;;;;;;;;5009170;28;20209;-85
2024/04/08 05:14:54;;;;;;;5.60;2.30;;;;;;;;;;5009017;28;20271;-84
2024/04/08 05:17:20;;;;;;;3.53;1.90;;;;;;;;;;5025986;28;20193;-85
2024/04/08 05:19:46;;;;;;;2.60;2.03;;;;;;;;;;5009420;28;20275;-84
2024/04/08 05:22:16;;;;;;;5.23;2.20;;;;;;;;;;5024108;28;20205;-85
2024/04/08 05:24:43;;;;;;;5.13;2.37;;;;;;;;;;5008122;28;20202;-85
2024/04/08 05:27:09;;;;;;;5.23;2.40;;;;;;;;;;5024959;28;20676;-84
2024/04/08 05:29:35;;;;;;;5.90;2.30;;;;;;;;;;5025437;28;20179;-84
2024/04/08 05:32:01;;;;;;;4.50;2.37;;;;;;;;;;5024482;28;20185;-84
2024/04/08 05:34:27;;;;;;;5.23;2.33;;;;;;;;;;5021541;28;20205;-83
2024/04/08 05:36:53;;;;;;;7.30;2.53;;;;;;;;;;5020642;28;20186;-83
2024/04/08 05:39:19;;;;;;;5.17;2.20;;;;;;;;;;5021252;28;20175;-83
2024/04/08 05:41:46;;;;;;;5.47;1.93;;;;;;;;;;5020639;28;20180;-83
2024/04/08 05:44:13;;;;;;;5.43;2.60;;;;;;;;;;5023513;28;20214;-83
2024/04/08 05:46:39;;;;;;;4.53;2.33;;;;;;;;;;5023580;28;20667;-84
2024/04/08 05:49:05;;;;;;;4.53;2.33;;;;;;;;;;5019042;28;20218;-84
2024/04/08 05:51:31;;;;;;;6.37;2.40;;;;;;;;;;5019805;28;20187;-82
2024/04/08 05:53:58;;;;;;;3.53;2.20;;;;;;;;;;5001946;28;20213;-82
2024/04/08 05:56:24;;;;;;;3.63;2.30;;;;;;;;;;5017502;28;20232;-83
2024/04/08 05:58:50;;;;;;;3.63;2.20;;;;;;;;;;5022941;28;20611;-84
2024/04/08 06:01:17;;;;;;;4.23;2.53;;;;;;;;;;5022778;28;20196;-85
2024/04/08 06:03:43;;;;;;;4.53;2.63;;;;;;;;;;5023765;28;20215;-84
2024/04/08 06:06:16;;;;;;;3.50;2.37;;;;;;;;;;5024383;28;20196;-84
2024/04/08 06:08:42;;;;;;;7.27;2.63;;;;;;;;;;5022224;28;20235;-84
2024/04/08 06:11:08;;;;;;;3.17;2.53;;;;;;;;;;5020689;28;20187;-84
2024/04/08 06:13:34;;;;;;;3.37;2.50;;;;;;;;;;5020598;28;20198;-83
2024/04/08 06:16:02;;;;;;;5.50;2.60;;;;;;;;;;5020754;28;20200;-83
2024/04/08 06:18:28;;;;;;;6.67;2.50;;;;;;;;;;5021344;28;20211;-82
2024/04/08 06:20:58;;;;;;;5.33;2.87;;;;;;;;;;5004736;28;20645;-83
2024/04/08 06:23:24;;;;;;;3.83;2.20;;;;;;;;;;5024525;28;20220;-83
2024/04/08 06:25:59;;;;;;;2.97;2.33;;;;;;;;;;5022880;28;20665;-83
2024/04/08 06:28:25;;;;;;;6.13;2.97;;;;;;;;;;5007829;28;20204;-83
2024/04/08 06:30:51;;;;;;;6.07;3.00;;;;;;;;;;5020890;28;20188;-84
2024/04/08 06:33:18;;;;;;;6.03;3.10;;;;;;;;;;5020887;28;20189;-83
2024/04/08 06:35:47;;;;;;;7.10;2.83;;;;;;;;;;5021002;28;20183;-82
2024/04/08 06:38:13;;;;;;;5.23;2.70;;;;;;;;;;5021331;28;20195;-82
2024/04/08 06:40:43;;;;;;;6.07;2.57;;;;;;;;;;5020240;28;20178;-83
2024/04/08 06:43:09;;;;;;;5.03;2.40;;;;;;;;;;5020263;28;20238;-84
2024/04/08 06:45:35;;;;;;;4.23;2.43;;;;;;;;;;5020397;28;20249;-83
2024/04/08 06:48:02;;;;;;;5.17;2.47;;;;;;;;;;5020583;28;20176;-84
2024/04/08 06:50:28;;;;;;;4.77;2.57;;;;;;;;;;5022252;28;20527;-83
2024/04/08 06:52:54;;;;;;;5.67;2.27;;;;;;;;;;5022295;28;20221;-84
2024/04/08 06:55:20;;;;;;;3.53;2.00;;;;;;;;;;5022061;28;20205;-84
2024/04/08 06:57:46;;;;;;;9.30;2.30;;;;;;;;;;5019987;28;20185;-83
2024/04/08 07:00:13;;;;;;;6.87;2.17;;;;;;;;;;5019993;28;20267;-84
2024/04/08 07:02:40;;;;;;;4.03;1.93;;;;;;;;;;5019116;28;20206;-83
2024/04/08 07:05:07;;;;;;;4.17;2.30;;;;;;;;;;5018346;28;20205;-83
2024/04/08 07:07:33;;;;;;;5.57;2.00;;;;;;;;;;5018153;28;20203;-83
2024/04/08 07:09:59;;;;;;;4.30;2.10;;;;;;;;;;5018157;28;20182;-83
2024/04/08 07:12:25;;;;;;;4.90;1.80;;;;;;;;;;5018712;28;20225;-84
2024/04/08 07:14:55;;;;;;;5.20;2.20;;;;;;;;;;5018300;28;20205;-83
2024/04/08 07:17:21;;;;;;;3.77;2.03;;;;;;;;;;5017229;28;20186;-82
2024/04/08 07:19:48;;;;;;;5.83;2.03;;;;;;;;;;5013926;28;20642;-82
2024/04/08 07:22:14;;;;;;;8.60;1.93;;;;;;;;;;5014486;28;20295;-83
2024/04/08 07:24:43;;;;;;;5.60;2.03;;;;;;;;;;5015047;28;20247;-82
2024/04/08 07:27:09;;;;;;;5.43;1.90;;;;;;;;;;5014883;28;20295;-83
2024/04/08 07:29:35;;;;;;;3.33;1.67;;;;;;;;;;5015046;28;20617;-80
2024/04/08 07:32:01;;;;;;;2.93;1.80;;;;;;;;;;5014978;28;20224;-84
2024/04/08 07:34:28;;;;;;;3.23;1.80;;;;;;;;;;5014649;28;20209;-79
2024/04/08 07:36:54;;;;;;;5.10;1.90;;;;;;;;;;5014984;28;20191;-80
2024/04/08 07:39:19;;;;;;;4.77;2.10;;;;;;;;;;5016080;28;20185;-82
2024/04/08 07:41:45;;;;;;;2.53;1.63;;;;;;;;;;5015678;28;20642;-82
2024/04/08 07:44:12;;;;;;;2.93;1.50;;;;;;;;;;5016676;28;20243;-83
2024/04/08 07:46:38;;;;;;;7.47;2.20;;;;;;;;;;5016191;28;20186;-83
2024/04/08 07:49:04;;;;;;;4.53;1.97;;;;;;;;;;5016676;28;20180;-82
2024/04/08 07:51:30;;;;;;;4.87;2.00;;;;;;;;;;5020629;28;20208;-84
2024/04/08 07:53:56;;;;;;;3.67;2.03;;;;;;;;;;5019192;28;20205;-83
2024/04/08 07:56:22;;;;;;;8.20;2.03;;;;;;;;;;5020329;28;20641;-84
2024/04/08 07:58:48;;;;;;;4.87;2.43;;;;;;;;;;5019405;28;20264;-85
2024/04/08 08:01:14;;;;;;;4.90;1.83;;;;;;;;;;5019656;28;20213;-83
2024/04/08 08:03:40;;;;;;;4.67;2.13;;;;;;;;;;5019028;28;20216;-83
2024/04/08 08:06:07;;;;;;;5.27;2.10;;;;;;;;;;5019348;28;20189;-82
2024/04/08 08:08:33;;;;;;;3.50;2.13;;;;;;;;;;5018481;28;20593;-82
2024/04/08 08:11:04;;;;;;;9.77;2.30;;;;;;;;;;5001380;28;20212;-83
2024/04/08 08:13:33;;;;;;;8.00;2.25;;;;;;;;;;5020115;28;20605;-82
2024/04/08 08:15:59;;;;;;;6.50;2.23;;;;;;;;;;5020396;28;20185;-83
2024/04/08 08:18:26;;;;;;;4.18;2.17;;;;;;;;;;5020293;28;20158;-83
2024/04/08 08:20:52;;;;;;;5.35;2.17;;;;;;;;;;5002384;28;20268;-83
2024/04/08 08:23:18;;;;;;;6.15;2.10;;;;;;;;;;5019748;28;20209;-83
2024/04/08 08:25:46;;;;;;;7.68;2.15;;;;;;;;;;5020183;28;20201;-83
2024/04/08 08:28:12;;;;;;;6.97;2.33;;;;;;;;;;5019724;28;20189;-83
2024/04/08 08:30:38;;;;;;;4.55;2.40;;;;;;;;;;5019236;28;20205;-83
2024/04/08 08:33:04;;;;;;;6.10;3.10;;;;;;;;;;5003135;28;20166;-85
2024/04/08 08:35:30;;;;;;;5.63;2.75;;;;;;;;;;5021395;28;20182;-84
2024/04/08 08:37:57;;;;;;;4.78;1.90;;;;;;;;;;5021425;28;20182;-83
2024/04/08 08:40:26;;;;;;;3.60;1.70;;;;;;;;;;5021370;28;20174;-84
2024/04/08 08:42:52;;;;;;;3.25;1.83;;;;;;;;;;5023375;28;20665;-83
2024/04/08 08:45:19;;;;;;;7.57;2.40;;;;;;;;;;5022773;28;20198;-85
2024/04/08 08:47:45;;;;;;;5.35;1.98;;;;;;;;;;5022798;28;20182;-83
2024/04/08 08:50:11;;;;;;;6.50;2.15;;;;;;;;;;5024062;28;20182;-83
2024/04/08 08:52:37;;;;;;;4.93;1.92;;;;;;;;;;5023857;28;20197;-83
2024/04/08 08:55:04;;;;;;;8.93;1.88;;;;;;;;;;5022791;28;20201;-84
2024/04/08 08:57:30;;;;;;;7.35;2.35;;;;;;;;;;5022363;28;20680;-84
2024/04/08 08:59:58;;;;;;;25.77;3.65;;;;;;;;;;5022947;28;20194;-83
2024/04/08 09:02:25;;;;;;;23.08;2.80;;;;;;;;;;5021841;28;20197;-83
2024/04/08 09:04:52;;;;;;;6.28;2.15;;;;;;;;;;5020885;28;20194;-84
2024/04/08 09:07:18;;;;;;;4.25;1.45;;;;;;;;;;5020774;28;20232;-84
2024/04/08 09:09:57;;;;;;;14.40;2.30;;;;;;;;;;5020791;28;20711;-83
2024/04/08 09:12:23;;;;;;;4.30;2.33;;;;;;;;;;5020087;28;20633;-81
2024/04/08 09:14:51;;;;;;;7.32;2.13;;;;;;;;;;5020737;28;20233;-83
2024/04/08 09:17:18;;;;;;;6.78;2.15;;;;;;;;;;5018917;28;20173;-83
2024/04/08 09:19:44;;;;;;;5.57;1.77;;;;;;;;;;5016120;28;20190;-83
2024/04/08 09:22:10;;;;;;;3.97;1.77;;;;;;;;;;5015516;28;20181;-82
2024/04/08 09:24:36;;;;;;;2.70;1.67;;;;;;;;;;5016136;28;20228;-82
2024/04/08 09:27:02;;;;;;;5.90;1.80;;;;;;;;;;5016463;28;20268;-82
2024/04/08 09:29:28;;;;;;;9.52;1.90;;;;;;;;;;5016939;28;20166;-83
2024/04/08 09:31:54;;;;;;;2.65;1.40;;;;;;;;;;5017494;28;20553;-82
2024/04/08 09:34:20;;;;;;;5.28;1.85;;;;;;;;;;5017120;28;20205;-83
2024/04/08 09:36:47;;;;;;;7.55;1.52;;;;;;;;;;5000134;28;20543;-83
2024/04/08 09:39:13;;;;;;;6.35;2.70;;;;;;;;;;5017585;28;20523;-83
2024/04/08 09:41:40;;;;;;;5.70;2.88;;;;;;;;;;5016945;28;20188;-81
2024/04/08 09:44:09;;;;;;;8.15;1.80;;;;;;;;;;5017829;28;20712;-84
2024/04/08 09:46:36;;;;;;;6.15;1.90;;;;;;;;;;5018649;28;20245;-86
2024/04/08 09:49:03;;;;;;;6.03;1.60;;;;;;;;;;4999898;28;20178;-82
2024/04/08 09:51:30;;;;;;;7.85;1.63;;;;;;;;;;5017117;28;20178;-83
2024/04/08 09:53:57;;;;;;;7.00;1.80;;;;;;;;;;5019033;28;20209;-84
2024/04/08 09:56:23;;;;;;;4.43;1.63;;;;;;;;;;5017554;28;20177;-81
2024/04/08 09:59:12;;;;;;;5.20;1.70;;;;;;;;;;5016956;28;20232;-81
2024/04/08 10:01:38;;;;;;;6.03;1.55;;;;;;;;;;5006866;28;20190;-83
2024/04/08 10:04:13;;;;;;;7.20;2.00;;;;;;;;;;5016986;28;20233;-84
2024/04/08 10:06:40;;;;;;;4.75;1.75;;;;;;;;;;5017257;28;20170;-84
2024/04/08 10:09:06;;;;;;;4.32;1.88;;;;;;;;;;5017785;28;20212;-83
2024/04/08 10:11:32;;;;;;;3.78;1.50;;;;;;;;;;5017045;28;20174;-84
2024/04/08 10:13:58;;;;;;;7.15;2.13;;;;;;;;;;5017155;28;20229;-87
2024/04/08 10:16:24;;;;;;;4.43;1.55;;;;;;;;;;5017506;28;20173;-85
2024/04/08 10:18:57;;;;;;;4.90;2.05;;;;;;;;;;5018743;28;20540;-85
2024/04/08 10:21:25;;;;;;;3.08;1.67;;;;;;;;;;5018972;28;20224;-85
2024/04/08 10:23:52;;;;;;;4.30;1.40;;;;;;;;;;5018663;28;20244;-84
2024/04/08 10:26:18;;;;;;;6.95;1.90;;;;;;;;;;5019073;28;20174;-85
2024/04/08 10:28:44;;;;;;;3.67;1.77;;;;;;;;;;5018141;28;20182;-85
2024/04/08 10:31:12;;;;;;;3.97;1.70;;;;;;;;;;5017876;28;20640;-86
2024/04/08 10:33:38;;;;;;;2.78;1.77;;;;;;;;;;5016908;28;20695;-85
2024/04/08 10:36:05;;;;;;;7.65;2.00;;;;;;;;;;5018151;28;20197;-84
2024/04/08 10:38:31;;;;;;;6.72;1.63;;;;;;;;;;5018458;28;20173;-85
2024/04/08 10:41:07;;;;;;;5.03;1.70;;;;;;;;;;5018408;28;20166;-84
2024/04/08 10:43:36;;;;;;;9.00;5.00;;;;;;;;;;5017949;28;20288;-84
2024/04/08 10:46:06;;;;;;;4.38;1.52;;;;;;;;;;5017534;28;20182;-83
2024/04/08 10:48:32;;;;;;;5.20;1.48;;;;;;;;;;5017365;28;20177;-85
2024/04/08 10:50:59;;;;;;;4.13;1.40;;;;;;;;;;5017955;28;20712;-82
2024/04/08 10:53:26;;;;;;;2.88;1.23;;;;;;;;;;5017137;28;20213;-83
2024/04/08 10:55:52;;;;;;;2.75;1.33;;;;;;;;;;5015780;28;20182;-83
2024/04/08 10:58:18;;;;;;;4.63;1.20;;;;;;;;;;5014039;28;20285;-83
2024/04/08 11:00:45;;;;;;;3.67;1.30;;;;;;;;;;5015183;28;20178;-84
2024/04/08 11:03:12;;;;;;;3.80;1.38;;;;;;;;;;5014397;28;20273;-82
2024/04/08 11:05:38;;;;;;;4.07;1.52;;;;;;;;;;5015064;28;20244;-83
2024/04/08 11:08:04;;;;;;;4.72;3.47;;;;;;;;;;5015367;28;20189;-84
2024/04/08 11:10:30;;;;;;;4.43;2.15;;;;;;;;;;5015262;28;20516;-82
2024/04/08 11:12:57;;;;;;;3.70;1.95;;;;;;;;;;5014847;28;20204;-83
2024/04/08 11:15:23;;;;;;;4.65;2.17;;;;;;;;;;5014235;28;20197;-81
2024/04/08 11:17:55;;;;;;;5.40;1.48;;;;;;;;;;5014178;28;20184;-83
2024/04/08 11:20:21;;;;;;;4.07;1.50;;;;;;;;;;5016423;28;20332;-83
2024/04/08 11:22:47;;;;;;;3.22;1.40;;;;;;;;;;5000940;28;20207;-82
2024/04/08 11:25:17;;;;;;;1.95;1.27;;;;;;;;;;5019558;28;20204;-82
2024/04/08 11:27:43;;;;;;;4.05;1.23;;;;;;;;;;5017748;28;20177;-82
2024/04/08 11:30:10;;;;;;;2.85;1.67;;;;;;;;;;5017082;28;20181;-82
2024/04/08 11:32:36;;;;;;;3.97;1.70;;;;;;;;;;5017909;28;20220;-84
2024/04/08 11:35:03;;;;;;;5.78;1.70;;;;;;;;;;5017799;28;20643;-83
2024/04/08 11:37:31;;;;;;;5.68;1.70;;;;;;;;;;5016675;28;20181;-83
2024/04/08 11:39:57;;;;;;;3.00;1.58;;;;;;;;;;5017723;28;20235;-83
2024/04/08 11:42:23;;;;;;;4.05;1.45;;;;;;;;;;5017016;28;20207;-83
2024/04/08 11:44:57;;;;;;;4.88;1.48;;;;;;;;;;5018887;28;20220;-83
2024/04/08 11:47:23;;;;;;;4.70;1.80;;;;;;;;;;5021693;28;20182;-83
2024/04/08 11:49:49;;;;;;;5.95;1.63;;;;;;;;;;5025905;28;20248;-81
2024/04/08 11:52:15;;;;;;;8.18;1.52;;;;;;;;;;5027670;28;20174;-81
2024/04/08 11:54:41;;;;;;;3.17;1.45;;;;;;;;;;5026649;28;20227;-82
2024/04/08 11:57:10;;;;;;;1.40;1.30;;;;;;;;;;5018997;28;20188;-77
2024/04/08 11:59:37;;;;;;;4.35;1.50;;;;;;;;;;5016970;28;20207;-78
2024/04/08 12:02:06;;;;;;;5.75;1.80;;;;;;;;;;5017975;28;20596;-77
2024/04/08 12:04:32;;;;;;;4.13;1.70;;;;;;;;;;5017546;28;20610;-78
2024/04/08 12:06:59;;;;;;;7.38;1.50;;;;;;;;;;5017170;28;20713;-77
2024/04/08 12:09:25;;;;;;;4.25;1.35;;;;;;;;;;5021264;28;20177;-80
2024/04/08 12:11:51;;;;;;;4.20;1.75;;;;;;;;;;5021943;28;20169;-81
2024/04/08 12:14:17;;;;;;;4.75;1.52;;;;;;;;;;5021320;28;20702;-81
2024/04/08 12:16:43;;;;;;;5.38;1.50;;;;;;;;;;5021780;28;20188;-81
2024/04/08 12:19:09;;;;;;;1.98;1.50;;;;;;;;;;5021746;28;20237;-81
2024/04/08 12:21:36;;;;;;;4.85;1.55;;;;;;;;;;5020886;28;20256;-81
2024/04/08 12:24:02;;;;;;;4.43;1.55;;;;;;;;;;5022597;28;20217;-82
2024/04/08 12:26:28;;;;;;;3.88;1.70;;;;;;;;;;5022168;28;20212;-83
2024/04/08 12:28:54;;;;;;;5.25;1.83;;;;;;;;;;5021515;28;20177;-83
2024/04/08 12:31:20;;;;;;;4.78;1.65;;;;;;;;;;5021507;28;20181;-83
2024/04/08 12:33:46;;;;;;;4.70;1.60;;;;;;;;;;5021183;28;20703;-83
2024/04/08 12:36:14;;;;;;;2.65;1.52;;;;;;;;;;5016659;28;20189;-79
2024/04/08 12:38:40;;;;;;;3.33;1.25;;;;;;;;;;5016669;28;20687;-79
2024/04/08 12:41:06;;;;;;;3.60;1.40;;;;;;;;;;5016853;28;20191;-79
2024/04/08 12:43:34;;;;;;;6.07;1.70;;;;;;;;;;5016748;28;20684;-79
2024/04/08 12:46:00;;;;;;;4.70;2.13;;;;;;;;;;5016731;28;20296;-80
2024/04/08 12:48:26;;;;;;;7.25;2.05;;;;;;;;;;5017168;28;20175;-80
2024/04/08 12:50:52;;;;;;;4.70;1.80;;;;;;;;;;5017369;28;20640;-80
2024/04/08 12:53:19;;;;;;;6.22;1.60;;;;;;;;;;5016937;28;20197;-81
2024/04/08 12:55:47;;;;;;;5.70;1.50;;;;;;;;;;5017058;28;20546;-81
2024/04/08 12:58:13;;;;;;;2.88;1.30;;;;;;;;;;5017715;28;20188;-80
2024/04/08 13:00:40;;;;;;;5.68;2.00;;;;;;;;;;5017607;28;20180;-81
2024/04/08 13:03:06;;;;;;;3.67;1.52;;;;;;;;;;5017941;28;20196;-81
2024/04/08 13:05:32;;;;;;;4.97;1.95;;;;;;;;;;5018759;28;20186;-80
2024/04/08 13:07:58;;;;;;;4.85;2.03;;;;;;;;;;5017984;28;20170;-82
2024/04/08 13:10:24;;;;;;;5.38;1.95;;;;;;;;;;5018607;28;20161;-82
2024/04/08 13:12:50;;;;;;;2.90;1.60;;;;;;;;;;5018666;28;20209;-82
2024/04/08 13:15:17;;;;;;;3.13;1.75;;;;;;;;;;5019046;28;20279;-82
2024/04/08 13:17:43;;;;;;;4.05;1.80;;;;;;;;;;5018191;28;20672;-77
2024/04/08 13:20:09;;;;;;;6.85;1.70;;;;;;;;;;5019444;28;20253;-81
2024/04/08 13:22:35;;;;;;;5.70;1.95;;;;;;;;;;5018160;28;20718;-84
2024/04/08 13:25:01;;;;;;;4.10;1.63;;;;;;;;;;5017889;28;20231;-83
2024/04/08 13:27:27;;;;;;;4.82;1.80;;;;;;;;;;5017647;28;20181;-84
2024/04/08 13:29:53;;;;;;;2.78;1.75;;;;;;;;;;5019266;28;20663;-82
2024/04/08 13:32:19;;;;;;;4.75;1.60;;;;;;;;;;5017952;28;20280;-82
2024/04/08 13:34:46;;;;;;;4.25;1.45;;;;;;;;;;5018177;28;20229;-83
2024/04/08 13:37:12;;;;;;;3.92;1.80;;;;;;;;;;5019761;28;20189;-82
2024/04/08 13:39:41;;;;;;;5.05;2.03;;;;;;;;;;5019511;28;20539;-82
2024/04/08 13:42:07;;;;;;;7.43;2.00;;;;;;;;;;5019169;28;20197;-82
2024/04/08 13:44:33;;;;;;;3.30;1.77;;;;;;;;;;5019342;28;20211;-83
2024/04/08 13:46:59;;;;;;;4.47;2.25;;;;;;;;;;5019256;28;20165;-83
2024/04/08 13:49:25;;;;;;;5.47;2.08;;;;;;;;;;5019446;28;20165;-83
2024/04/08 13:51:55;;;;;;;4.82;2.10;;;;;;;;;;5019898;28;20184;-83
2024/04/08 13:54:30;;;;;;;5.57;1.65;;;;;;;;;;5019471;28;20224;-82
2024/04/08 13:56:56;;;;;;;4.45;1.88;;;;;;;;;;5019627;28;20187;-82
2024/04/08 13:59:22;;;;;;;3.70;1.73;;;;;;;;;;5019405;28;20189;-83
2024/04/08 14:01:49;;;;;;;4.07;1.90;;;;;;;;;;5019568;28;20206;-83
2024/04/08 14:04:15;;;;;;;6.57;2.15;;;;;;;;;;5020473;28;20197;-84
2024/04/08 14:06:41;;;;;;;6.18;2.05;;;;;;;;;;5019957;28;20181;-82
2024/04/08 14:09:08;;;;;;;7.20;2.05;;;;;;;;;;5001178;28;20212;-83
2024/04/08 14:11:34;;;;;;;6.13;2.03;;;;;;;;;;5019639;28;20178;-84
2024/04/08 14:14:00;;;;;;;7.40;1.90;;;;;;;;;;5019476;28;20307;-84
2024/04/08 14:16:26;;;;;;;7.75;2.25;;;;;;;;;;5014931;28;20184;-82
2024/04/08 14:18:54;;;;;;;8.82;2.47;;;;;;;;;;5014586;28;20177;-82
2024/04/08 14:21:20;;;;;;;6.85;2.33;;;;;;;;;;5015141;28;20169;-84
2024/04/08 14:23:46;;;;;;;8.63;2.40;;;;;;;;;;5016028;28;20296;-82
2024/04/08 14:26:14;;;;;;;7.35;2.53;;;;;;;;;;5015692;28;20322;-83
2024/04/08 14:28:43;;;;;;;12.23;3.58;;;;;;;;;;5016541;28;20178;-83
2024/04/08 14:31:10;;;;;;;13.48;3.67;;;;;;;;;;5016591;28;20185;-83
2024/04/08 14:33:36;;;;;;;12.60;3.03;;;;;;;;;;5016170;28;20213;-82
2024/04/08 14:36:02;;;;;;;13.75;3.17;;;;;;;;;;5016384;28;20224;-81
2024/04/08 14:38:28;;;;;;;11.13;2.95;;;;;;;;;;5017686;28;20239;-83